GCRR/ACE METAR and TAF weather

Enter ICAO airport designator
Station Type Date Time Source
GCRR METAR 2019/02/23 03:00 UTC NOAA

GCRR 230300Z AUTO 02009KT 360V060 9999 NCD 19/08 Q1023


Station Type Date Time Source
GCRR Decoded METAR 2019/02/23 03:00 UTC NOAA

Lanzarote / Aeropuerto, Spain (GCRR) 28-57N 013-36W 21M
Feb 22, 2019 - 10:00 PM EST / 2019.02.23 0300 UTC
Wind: from the NNE (020 degrees) at 10 MPH (9 KT) (direction variable):0
Visibility: greater than 7 mile(s):0
Temperature: 66 F (19 C)
Dew Point: 46 F (8 C)
Relative Humidity: 48%
Pressure (altimeter): 30.21 in. Hg (1023 hPa)
ob: GCRR 230300Z AUTO 02009KT 360V060 9999 NCD 19/08 Q1023
cycle: 3

Station Type Date Time Source
GCRR TAF 2019/02/23 03:27 UTC NOAA

TAF GCRR 230200Z 2303/2403 05008KT 8000 NSC TX25/2314Z TN15/2306Z PROB40
TEMPO 2309/2319 11010KT 4000 HZ


Example: see airport list